createdAt,value
2023-03-26T00:06:37.155Z,74
2023-03-26T00:35:56.235Z,77
2023-03-26T01:04:55.548Z,76
2023-03-26T01:33:56.632Z,78
2023-03-26T02:02:51.838Z,75
2023-03-26T02:31:53.115Z,75
2023-03-26T03:00:53.634Z,75
2023-03-26T03:29:59.473Z,74
2023-03-26T03:59:16.266Z,73
2023-03-26T04:28:33.986Z,74
2023-03-26T04:57:34.902Z,73
2023-03-26T05:26:45.884Z,75
2023-03-26T05:55:58.972Z,78
2023-03-26T06:25:01.987Z,79
2023-03-26T06:54:05.034Z,79
2023-03-26T07:23:04.715Z,80
2023-03-26T07:52:09.900Z,82
2023-03-26T08:21:20.642Z,86
2023-03-26T08:50:30.730Z,82
2023-03-26T09:19:39.245Z,81
2023-03-26T09:48:59.478Z,81
2023-03-26T10:18:30.410Z,80
2023-03-26T10:47:11.426Z,64
2023-03-26T11:16:26.645Z,58
2023-03-26T11:45:42.068Z,50
2023-03-26T12:15:02.815Z,48
2023-03-26T12:44:51.767Z,58
2023-03-26T13:13:08.667Z,66
2023-03-26T13:42:24.050Z,71
2023-03-26T14:11:42.318Z,73
2023-03-26T14:40:55.392Z,72
2023-03-26T15:09:52.693Z,77
2023-03-26T15:39:04.671Z,76
2023-03-26T16:08:19.787Z,79
2023-03-26T16:37:32.598Z,79
2023-03-26T17:06:47.659Z,80
2023-03-26T17:36:06.365Z,81
2023-03-26T18:05:24.897Z,83
2023-03-26T18:34:38.341Z,80
2023-03-26T19:03:51.976Z,79
2023-03-26T19:33:14.230Z,78
2023-03-26T20:01:51.580Z,83
2023-03-26T20:31:04.347Z,83
2023-03-26T21:00:16.688Z,82
2023-03-26T21:29:38.369Z,84
2023-03-26T21:58:55.063Z,82
2023-03-26T22:28:13.753Z,84
2023-03-26T22:57:33.501Z,86
2023-03-26T23:26:51.936Z,83
2023-03-26T23:56:09.560Z,83
